createdAt,value
2023-02-06T00:01:52.034Z,6.00
2023-02-06T00:04:20.444Z,5.80
2023-02-06T00:06:49.227Z,6.30
2023-02-06T00:09:17.465Z,5.60
2023-02-06T00:11:45.824Z,5.90
2023-02-06T00:14:14.027Z,5.90
2023-02-06T00:16:42.336Z,5.70
2023-02-06T00:19:10.683Z,6.70
2023-02-06T00:21:39.073Z,6.00
2023-02-06T00:24:07.493Z,5.90
2023-02-06T00:26:35.967Z,6.00
2023-02-06T00:29:04.274Z,5.60
2023-02-06T00:31:32.563Z,6.10
2023-02-06T00:34:03.645Z,6.50
2023-02-06T00:36:33.255Z,6.30
2023-02-06T00:39:01.523Z,6.70
2023-02-06T00:41:29.718Z,6.20
2023-02-06T00:43:58.024Z,6.20
2023-02-06T00:46:26.386Z,5.80
2023-02-06T00:48:54.643Z,5.80
2023-02-06T00:51:22.964Z,7.00
2023-02-06T00:53:51.357Z,5.90
2023-02-06T00:56:19.887Z,6.30
2023-02-06T00:58:48.302Z,6.00
2023-02-06T01:01:16.543Z,5.80
2023-02-06T01:03:44.857Z,6.50
2023-02-06T01:06:13.182Z,5.90
2023-02-06T01:08:41.413Z,6.00
2023-02-06T01:11:18.818Z,6.10
2023-02-06T01:13:47.940Z,5.60
2023-02-06T01:16:21.946Z,5.30
2023-02-06T01:18:51.101Z,5.70
2023-02-06T01:21:23.220Z,5.50
2023-02-06T01:23:54.298Z,5.40
2023-02-06T01:26:27.158Z,5.90
2023-02-06T01:28:56.499Z,5.60
2023-02-06T01:31:28.915Z,5.70
2023-02-06T01:34:00.163Z,5.30
2023-02-06T01:36:29.161Z,5.50
2023-02-06T01:38:57.539Z,5.60
2023-02-06T01:41:25.854Z,5.50
2023-02-06T01:44:11.596Z,5.50
2023-02-06T01:46:42.561Z,5.40
2023-02-06T01:49:18.444Z,5.50
2023-02-06T01:51:49.469Z,5.60
2023-02-06T01:54:17.893Z,6.40
2023-02-06T01:56:53.544Z,5.60
2023-02-06T01:59:23.318Z,5.50
2023-02-06T02:04:22.041Z,5.20
2023-02-06T02:07:17.941Z,5.90
2023-02-06T02:09:46.658Z,5.40
2023-02-06T02:12:15.022Z,4.90
2023-02-06T02:14:45.733Z,5.10
2023-02-06T02:18:07.129Z,5.80
2023-02-06T02:20:47.578Z,5.40
2023-02-06T02:23:15.869Z,5.30
2023-02-06T02:25:56.378Z,5.70
2023-02-06T02:28:56.309Z,5.50
2023-02-06T02:34:32.895Z,5.20
2023-02-06T02:37:28.932Z,5.50
2023-02-06T02:39:57.275Z,5.50
2023-02-06T02:42:32.491Z,5.20
2023-02-06T02:45:16.693Z,5.10
2023-02-06T02:47:56.071Z,5.80
2023-02-06T02:50:25.411Z,5.60
2023-02-06T02:52:53.709Z,5.30
2023-02-06T02:55:24.046Z,5.40
2023-02-06T02:57:59.527Z,5.20
2023-02-06T03:00:29.318Z,5.60
2023-02-06T03:02:58.717Z,5.00
2023-02-06T03:05:28.199Z,5.30
2023-02-06T03:08:11.010Z,5.60
2023-02-06T03:10:52.427Z,5.10
2023-02-06T03:13:40.110Z,5.00
2023-02-06T03:16:14.726Z,5.30
2023-02-06T03:18:53.579Z,4.90
2023-02-06T03:21:24.748Z,5.00
2023-02-06T03:23:56.918Z,4.90
2023-02-06T03:26:28.667Z,5.40
2023-02-06T03:29:02.668Z,5.20
2023-02-06T03:31:42.693Z,5.50
2023-02-06T03:37:03.179Z,4.80
2023-02-06T03:39:31.503Z,5.60
2023-02-06T03:42:01.587Z,5.60
2023-02-06T03:44:36.074Z,5.30
2023-02-06T03:47:07.928Z,5.10
2023-02-06T03:49:39.962Z,5.10
2023-02-06T03:52:16.061Z,5.40
2023-02-06T03:54:55.068Z,5.60
2023-02-06T03:57:25.018Z,4.90
2023-02-06T03:59:53.421Z,5.40
2023-02-06T04:02:24.610Z,6.20
2023-02-06T04:04:53.021Z,6.00
2023-02-06T04:07:27.732Z,5.60
2023-02-06T04:09:56.225Z,5.40
2023-02-06T04:12:25.170Z,5.40
2023-02-06T04:14:53.595Z,5.60
2023-02-06T04:17:40.710Z,5.30
2023-02-06T04:20:10.638Z,5.40
2023-02-06T04:22:40.266Z,5.30
2023-02-06T04:25:08.759Z,5.20
2023-02-06T04:27:38.278Z,5.50
2023-02-06T04:30:07.100Z,5.10
2023-02-06T04:32:35.506Z,5.20
2023-02-06T04:35:04.125Z,5.90
2023-02-06T04:37:32.898Z,5.40
2023-02-06T04:40:01.222Z,5.40
2023-02-06T04:42:29.599Z,5.90
2023-02-06T04:44:57.806Z,6.10
2023-02-06T04:47:26.100Z,7.00
2023-02-06T04:49:54.374Z,7.20
2023-02-06T04:52:22.718Z,6.90
2023-02-06T04:54:50.950Z,6.90
2023-02-06T04:57:19.307Z,7.80
2023-02-06T04:59:47.511Z,7.50
2023-02-06T05:02:15.906Z,6.60
2023-02-06T05:04:44.305Z,5.90
2023-02-06T05:07:12.537Z,6.10
2023-02-06T05:09:40.731Z,6.00
2023-02-06T05:12:09.083Z,5.90
2023-02-06T05:14:37.369Z,5.80
2023-02-06T05:17:05.567Z,5.60
2023-02-06T05:19:33.918Z,5.60
2023-02-06T05:22:02.372Z,5.70
2023-02-06T05:24:30.848Z,5.60
2023-02-06T05:26:59.171Z,5.60
2023-02-06T05:29:27.958Z,5.60
2023-02-06T05:31:56.251Z,6.00
2023-02-06T05:34:24.761Z,6.40
2023-02-06T05:36:52.989Z,5.80
2023-02-06T05:39:21.401Z,6.10
2023-02-06T05:41:49.677Z,5.60
2023-02-06T05:44:17.850Z,6.20
2023-02-06T05:46:48.627Z,5.80
2023-02-06T05:49:17.212Z,6.00
2023-02-06T05:51:45.446Z,6.10
2023-02-06T05:54:15.559Z,6.60
2023-02-06T05:56:44.314Z,5.80
2023-02-06T05:59:12.603Z,6.10
2023-02-06T06:01:40.857Z,5.80
2023-02-06T06:04:09.181Z,6.20
2023-02-06T06:06:37.551Z,6.10
2023-02-06T06:09:06.079Z,5.60
2023-02-06T06:11:34.344Z,6.10
2023-02-06T06:14:02.618Z,6.30
2023-02-06T06:16:31.100Z,6.10
2023-02-06T06:18:59.430Z,6.80
2023-02-06T06:21:27.811Z,5.60
2023-02-06T06:23:56.403Z,6.60
2023-02-06T06:26:24.743Z,6.30
2023-02-06T06:28:52.959Z,6.50
2023-02-06T06:31:21.386Z,7.00
2023-02-06T06:33:49.785Z,6.10
2023-02-06T06:36:18.029Z,6.90
2023-02-06T06:38:46.295Z,6.90
2023-02-06T06:41:14.596Z,6.10
2023-02-06T06:43:42.873Z,6.20
2023-02-06T06:46:11.332Z,6.80
2023-02-06T06:48:40.559Z,6.00
2023-02-06T06:51:08.798Z,6.30
2023-02-06T06:53:40.331Z,6.30
2023-02-06T06:56:11.957Z,5.80
2023-02-06T06:58:40.744Z,6.40
2023-02-06T07:01:09.532Z,6.10
2023-02-06T07:03:38.066Z,6.60
2023-02-06T07:06:06.686Z,6.20
2023-02-06T07:08:36.176Z,6.50
2023-02-06T07:11:05.017Z,6.70
2023-02-06T07:13:33.213Z,6.30
2023-02-06T07:16:01.732Z,6.00
2023-02-06T07:18:30.069Z,6.20
2023-02-06T07:20:58.410Z,6.00
2023-02-06T07:23:27.130Z,6.90
2023-02-06T07:25:56.726Z,6.60
2023-02-06T07:28:24.897Z,6.60
2023-02-06T07:30:53.419Z,6.60
2023-02-06T07:33:21.715Z,6.30
2023-02-06T07:35:49.978Z,6.70
2023-02-06T07:38:18.452Z,6.70
2023-02-06T07:40:46.706Z,6.40
2023-02-06T07:43:14.967Z,6.90
2023-02-06T07:45:43.678Z,6.70
2023-02-06T07:48:11.980Z,6.60
2023-02-06T07:50:40.194Z,6.80
2023-02-06T07:53:08.559Z,7.00
2023-02-06T07:55:38.672Z,6.90
2023-02-06T07:58:07.160Z,7.00
2023-02-06T08:00:35.426Z,7.00
2023-02-06T08:03:05.188Z,7.40
2023-02-06T08:05:36.260Z,7.30
2023-02-06T08:08:05.283Z,7.30
2023-02-06T08:10:33.618Z,7.50
2023-02-06T08:13:02.144Z,7.90
2023-02-06T08:15:30.476Z,7.70
2023-02-06T08:17:58.761Z,8.50
2023-02-06T08:20:26.942Z,8.70
2023-02-06T08:22:55.411Z,8.40
2023-02-06T08:25:24.633Z,8.90
2023-02-06T08:27:55.205Z,8.70
2023-02-06T08:30:24.266Z,8.10
2023-02-06T08:32:52.744Z,7.70
2023-02-06T08:35:21.076Z,8.60
2023-02-06T08:37:49.384Z,8.40
2023-02-06T08:40:17.825Z,7.80
2023-02-06T08:42:53.831Z,7.80
2023-02-06T08:45:22.195Z,7.30
2023-02-06T08:47:51.411Z,7.70
2023-02-06T08:50:19.716Z,7.30
2023-02-06T08:52:48.008Z,8.20
2023-02-06T08:55:16.280Z,8.20
2023-02-06T08:57:44.510Z,7.70
2023-02-06T09:00:13.616Z,8.30
2023-02-06T09:02:42.053Z,8.60
2023-02-06T09:05:10.487Z,7.80
2023-02-06T09:07:38.938Z,8.10
2023-02-06T09:10:16.219Z,7.70
2023-02-06T09:12:54.106Z,8.60
2023-02-06T09:15:22.430Z,8.20
2023-02-06T09:17:50.772Z,8.10
2023-02-06T09:20:19.118Z,8.00
2023-02-06T09:22:47.347Z,7.90
2023-02-06T09:25:15.676Z,8.20
2023-02-06T09:27:46.887Z,7.60
2023-02-06T09:30:15.799Z,8.20
2023-02-06T09:32:44.388Z,7.50
2023-02-06T09:35:12.814Z,7.40
2023-02-06T09:37:41.301Z,7.80
2023-02-06T09:40:12.889Z,7.30
2023-02-06T09:42:42.405Z,8.10
2023-02-06T09:45:21.781Z,7.30
2023-02-06T09:47:55.866Z,8.00
2023-02-06T09:50:39.949Z,7.70
2023-02-06T09:53:16.799Z,7.90
2023-02-06T09:55:55.735Z,7.50
2023-02-06T09:58:46.563Z,7.90
2023-02-06T10:01:29.760Z,7.70
2023-02-06T10:04:13.323Z,7.90
2023-02-06T10:07:09.178Z,7.60
2023-02-06T10:10:06.436Z,7.50
2023-02-06T10:12:53.567Z,7.90
2023-02-06T10:15:34.165Z,7.90
2023-02-06T10:18:11.433Z,7.70
2023-02-06T10:20:55.770Z,8.20
2023-02-06T10:23:41.881Z,8.10
2023-02-06T10:26:17.969Z,7.70
2023-02-06T10:28:52.584Z,7.50
2023-02-06T10:31:21.054Z,8.50
2023-02-06T10:34:01.123Z,8.10
2023-02-06T10:36:52.390Z,8.30
2023-02-06T10:39:35.564Z,7.70
2023-02-06T10:42:36.461Z,9.50
2023-02-06T10:45:21.984Z,9.40
2023-02-06T10:48:03.262Z,9.00
2023-02-06T10:50:42.945Z,9.00
2023-02-06T10:53:26.731Z,9.50
2023-02-06T10:56:03.564Z,8.90
2023-02-06T10:58:51.427Z,9.80
2023-02-06T11:01:26.473Z,9.40
2023-02-06T11:04:06.575Z,14.30
2023-02-06T11:06:35.675Z,10.60
2023-02-06T11:09:04.189Z,9.90
2023-02-06T11:11:38.607Z,9.90
2023-02-06T11:14:25.142Z,9.70
2023-02-06T11:16:54.006Z,10.40
2023-02-06T11:19:54.469Z,18.20
2023-02-06T11:22:38.841Z,11.20
2023-02-06T11:25:25.540Z,11.20
2023-02-06T11:27:55.082Z,9.50
2023-02-06T11:30:40.143Z,9.90
2023-02-06T11:33:21.844Z,9.70
2023-02-06T11:35:59.758Z,10.10
2023-02-06T11:38:31.046Z,10.70
2023-02-06T11:41:02.605Z,14.10
2023-02-06T11:43:34.575Z,10.40
2023-02-06T11:46:17.099Z,8.50
2023-02-06T11:48:54.948Z,8.30
2023-02-06T11:51:25.871Z,8.30
2023-02-06T11:54:00.501Z,19.40
2023-02-06T11:56:31.521Z,12.20
2023-02-06T11:59:23.482Z,12.90
2023-02-06T12:01:51.807Z,29.50
2023-02-06T12:04:34.237Z,14.00
2023-02-06T12:07:30.547Z,14.60
2023-02-06T12:09:58.847Z,14.20
2023-02-06T12:12:38.983Z,7.40
2023-02-06T12:15:43.734Z,10.80
2023-02-06T12:18:25.407Z,10.20
2023-02-06T12:21:01.877Z,8.70
2023-02-06T12:23:50.190Z,6.90
2023-02-06T12:26:22.135Z,6.20
2023-02-06T12:28:55.194Z,12.80
2023-02-06T12:31:34.973Z,12.90
2023-02-06T12:36:54.970Z,7.70
2023-02-06T12:39:23.428Z,7.40
2023-02-06T12:42:27.701Z,14.00
2023-02-06T12:45:06.539Z,12.60
2023-02-06T12:47:44.690Z,9.30
2023-02-06T12:50:27.261Z,7.50
2023-02-06T12:52:55.787Z,6.40
2023-02-06T12:55:28.983Z,9.50
2023-02-06T12:57:58.299Z,6.50
2023-02-06T13:00:51.634Z,7.30
2023-02-06T13:03:48.210Z,5.00
2023-02-06T13:06:27.693Z,4.30
2023-02-06T13:09:06.993Z,5.60
2023-02-06T13:11:41.224Z,3.90
2023-02-06T13:14:25.298Z,5.40
2023-02-06T13:16:58.412Z,6.20
2023-02-06T13:19:31.601Z,5.90
2023-02-06T13:22:17.026Z,4.10
2023-02-06T13:24:49.078Z,8.70
2023-02-06T13:27:23.892Z,11.80
2023-02-06T13:29:54.251Z,9.20
2023-02-06T13:32:23.000Z,8.00
2023-02-06T13:35:15.707Z,6.10
2023-02-06T13:37:48.253Z,5.50
2023-02-06T13:40:32.391Z,6.20
2023-02-06T13:43:03.698Z,4.40
2023-02-06T13:45:59.769Z,4.60
2023-02-06T13:49:00.141Z,5.80
2023-02-06T13:52:00.455Z,5.20
2023-02-06T13:54:37.615Z,7.10
2023-02-06T13:57:15.970Z,6.10
2023-02-06T14:00:10.972Z,6.40
2023-02-06T14:02:49.257Z,8.60
2023-02-06T14:05:40.429Z,9.50
2023-02-06T14:08:25.873Z,6.50
2023-02-06T14:11:15.486Z,6.00
2023-02-06T14:14:05.814Z,6.50
2023-02-06T14:16:59.957Z,7.20
2023-02-06T14:19:46.892Z,8.00
2023-02-06T14:22:36.122Z,9.90
2023-02-06T14:25:35.397Z,11.30
2023-02-06T14:28:30.239Z,8.60
2023-02-06T14:31:20.444Z,6.50
2023-02-06T14:34:00.717Z,6.30
2023-02-06T14:36:34.609Z,7.20
2023-02-06T14:39:28.646Z,7.70
2023-02-06T14:41:57.882Z,7.00
2023-02-06T14:44:31.886Z,6.10
2023-02-06T14:47:00.616Z,5.20
2023-02-06T14:49:37.985Z,6.90
2023-02-06T14:52:06.475Z,6.70
2023-02-06T14:54:42.298Z,5.50
2023-02-06T14:57:25.799Z,6.20
2023-02-06T14:59:57.798Z,9.20
2023-02-06T15:02:32.301Z,9.90
2023-02-06T15:05:02.982Z,11.10
2023-02-06T15:07:36.196Z,10.60
2023-02-06T15:10:14.356Z,7.50
2023-02-06T15:12:51.440Z,8.10
2023-02-06T15:15:33.854Z,8.60
2023-02-06T15:18:07.124Z,6.40
2023-02-06T15:20:42.698Z,6.40
2023-02-06T15:23:41.969Z,6.30
2023-02-06T15:26:29.123Z,6.70
2023-02-06T15:29:00.128Z,6.70
2023-02-06T15:31:30.226Z,6.60
2023-02-06T15:36:32.751Z,6.10
2023-02-06T15:39:02.867Z,6.00
2023-02-06T15:41:32.204Z,5.80
2023-02-06T15:44:04.792Z,6.50
2023-02-06T15:46:33.644Z,6.20
2023-02-06T15:49:02.318Z,29.90
2023-02-06T15:51:41.042Z,8.00
2023-02-06T15:54:18.304Z,7.10
2023-02-06T15:57:02.429Z,7.50
2023-02-06T15:59:35.288Z,7.60
2023-02-06T16:02:04.226Z,7.40
2023-02-06T16:04:37.165Z,6.60
2023-02-06T16:07:25.246Z,6.50
2023-02-06T16:10:06.488Z,10.90
2023-02-06T16:12:36.709Z,11.70
2023-02-06T16:15:24.299Z,9.40
2023-02-06T16:17:53.306Z,9.10
2023-02-06T16:20:32.777Z,10.90
2023-02-06T16:23:27.087Z,10.90
2023-02-06T16:26:03.623Z,10.70
2023-02-06T16:28:31.984Z,13.00
2023-02-06T16:31:04.817Z,12.00
2023-02-06T16:33:36.322Z,13.30
2023-02-06T16:36:05.469Z,13.90
2023-02-06T16:38:34.675Z,15.10
2023-02-06T16:41:03.003Z,17.30
2023-02-06T16:43:31.598Z,19.60
2023-02-06T16:46:02.357Z,19.10
2023-02-06T16:48:30.749Z,20.30
2023-02-06T16:50:59.643Z,19.90
2023-02-06T16:53:29.195Z,20.00
2023-02-06T16:55:57.853Z,19.90
2023-02-06T16:58:28.785Z,21.40
2023-02-06T17:00:57.182Z,19.40
2023-02-06T17:03:26.237Z,19.90
2023-02-06T17:05:54.744Z,15.40
2023-02-06T17:08:25.553Z,14.30
2023-02-06T17:10:53.870Z,12.10
2023-02-06T17:13:24.730Z,9.70
2023-02-06T17:15:54.205Z,10.00
2023-02-06T17:18:23.845Z,9.70
2023-02-06T17:20:53.913Z,9.40
2023-02-06T17:25:52.294Z,7.80
2023-02-06T17:28:20.657Z,7.40
2023-02-06T17:30:51.155Z,7.20
2023-02-06T17:33:20.472Z,7.20
2023-02-06T17:35:49.321Z,6.40
2023-02-06T17:38:17.557Z,6.40
2023-02-06T17:40:45.966Z,6.30
2023-02-06T17:43:14.338Z,5.60
2023-02-06T17:45:42.934Z,6.00
2023-02-06T17:48:11.396Z,5.60
2023-02-06T17:50:41.408Z,5.70
2023-02-06T17:55:41.227Z,5.50
2023-02-06T17:58:09.468Z,5.90
2023-02-06T18:00:38.016Z,6.30
2023-02-06T18:03:06.609Z,7.50
2023-02-06T18:05:35.111Z,7.50
2023-02-06T18:08:03.595Z,9.70
2023-02-06T18:10:31.836Z,11.30
2023-02-06T18:13:00.270Z,11.40
2023-02-06T18:15:30.906Z,10.40
2023-02-06T18:18:00.344Z,10.90
2023-02-06T18:20:28.554Z,10.60
2023-02-06T18:22:56.799Z,13.10
2023-02-06T18:25:25.086Z,16.80
2023-02-06T18:27:53.330Z,14.10
2023-02-06T18:30:21.709Z,16.30
2023-02-06T18:36:04.993Z,21.40
2023-02-06T18:38:33.521Z,22.20
2023-02-06T18:41:06.426Z,22.20
2023-02-06T18:43:34.721Z,23.20
2023-02-06T18:46:08.865Z,22.50
2023-02-06T18:48:37.149Z,22.80
2023-02-06T18:51:07.777Z,21.60
2023-02-06T18:53:36.034Z,20.30
2023-02-06T18:56:05.113Z,19.40
2023-02-06T18:58:33.423Z,20.20
2023-02-06T19:01:02.769Z,18.80
2023-02-06T19:03:31.158Z,13.90
2023-02-06T19:05:59.508Z,12.70
2023-02-06T19:08:28.248Z,11.50
2023-02-06T19:10:57.625Z,11.20
2023-02-06T19:13:26.000Z,10.80
2023-02-06T19:16:07.917Z,10.40
2023-02-06T19:18:39.568Z,11.00
2023-02-06T19:21:11.684Z,11.60
2023-02-06T19:23:40.443Z,11.80
2023-02-06T19:26:10.522Z,11.80
2023-02-06T19:28:40.238Z,13.20
2023-02-06T19:31:10.607Z,17.50
2023-02-06T19:33:40.895Z,18.80
2023-02-06T19:36:14.180Z,18.60
2023-02-06T19:38:43.974Z,12.20
2023-02-06T19:41:18.634Z,14.80
2023-02-06T19:43:48.451Z,14.00
2023-02-06T19:46:20.175Z,13.90
2023-02-06T19:48:50.138Z,12.50
2023-02-06T19:53:53.459Z,10.20
2023-02-06T19:56:24.784Z,10.30
2023-02-06T19:58:57.963Z,11.20
2023-02-06T20:01:29.832Z,10.80
2023-02-06T20:04:00.522Z,10.50
2023-02-06T20:06:35.071Z,9.80
2023-02-06T20:09:05.104Z,10.20
2023-02-06T20:11:34.189Z,9.30
2023-02-06T20:14:02.523Z,8.70
2023-02-06T20:16:33.655Z,8.60
2023-02-06T20:19:19.483Z,8.50
2023-02-06T20:21:53.756Z,8.10
2023-02-06T20:24:25.500Z,7.50
2023-02-06T20:26:57.783Z,7.80
2023-02-06T20:29:29.185Z,9.60
2023-02-06T20:31:58.574Z,9.40
2023-02-06T20:34:27.232Z,9.90
2023-02-06T20:36:56.002Z,10.40
2023-02-06T20:39:26.095Z,10.00
2023-02-06T20:41:54.871Z,9.30
2023-02-06T20:44:23.099Z,10.30
2023-02-06T20:46:51.388Z,9.60
2023-02-06T20:49:26.416Z,10.10
2023-02-06T20:51:55.788Z,11.00
2023-02-06T20:54:25.158Z,12.20
2023-02-06T20:56:53.699Z,13.30
2023-02-06T20:59:22.861Z,11.60
2023-02-06T21:01:51.125Z,11.30
2023-02-06T21:04:20.547Z,10.60
2023-02-06T21:06:50.218Z,8.90
2023-02-06T21:09:19.454Z,8.50
2023-02-06T21:11:50.311Z,9.10
2023-02-06T21:14:20.484Z,10.00
2023-02-06T21:16:49.334Z,9.90
2023-02-06T21:19:19.735Z,9.50
2023-02-06T21:21:48.937Z,10.80
2023-02-06T21:24:18.251Z,11.40
2023-02-06T21:26:47.629Z,11.30
2023-02-06T21:29:16.256Z,12.10
2023-02-06T21:31:46.453Z,10.60
2023-02-06T21:34:18.832Z,11.00
2023-02-06T21:36:48.412Z,9.10
2023-02-06T21:39:19.427Z,9.00
2023-02-06T21:41:51.887Z,9.10
2023-02-06T21:44:23.825Z,9.20
2023-02-06T21:46:53.244Z,9.10
2023-02-06T21:49:23.441Z,9.20
2023-02-06T21:51:53.379Z,8.30
2023-02-06T21:54:22.669Z,9.30
2023-02-06T21:56:51.790Z,10.90
2023-02-06T21:59:20.071Z,9.00
2023-02-06T22:01:48.454Z,8.90
2023-02-06T22:04:16.872Z,8.50
2023-02-06T22:06:45.303Z,8.70
2023-02-06T22:09:16.505Z,7.90
2023-02-06T22:11:45.252Z,8.20
2023-02-06T22:14:16.571Z,8.90
2023-02-06T22:16:47.066Z,8.20
2023-02-06T22:19:16.517Z,8.50
2023-02-06T22:21:47.180Z,7.90
2023-02-06T22:24:15.563Z,7.70
2023-02-06T22:26:44.219Z,7.90
2023-02-06T22:29:15.515Z,8.20
2023-02-06T22:31:45.506Z,9.10
2023-02-06T22:34:21.033Z,8.00
2023-02-06T22:36:51.365Z,9.10
2023-02-06T22:39:20.143Z,8.50
2023-02-06T22:41:49.282Z,8.10
2023-02-06T22:44:20.025Z,8.00
2023-02-06T22:46:51.731Z,7.50
2023-02-06T22:49:21.699Z,7.60
2023-02-06T22:54:18.749Z,8.30
2023-02-06T22:56:48.690Z,9.30
2023-02-06T22:59:20.473Z,11.10
2023-02-06T23:01:50.502Z,12.10
2023-02-06T23:04:27.476Z,11.30
2023-02-06T23:06:56.499Z,11.60
2023-02-06T23:09:28.145Z,11.60
2023-02-06T23:11:58.542Z,11.50
2023-02-06T23:14:29.478Z,12.10
2023-02-06T23:17:00.180Z,13.00
2023-02-06T23:19:29.676Z,14.90
2023-02-06T23:21:58.181Z,15.30
2023-02-06T23:24:26.753Z,14.20
2023-02-06T23:26:55.115Z,13.60
2023-02-06T23:29:24.155Z,12.70
2023-02-06T23:31:53.034Z,12.80
2023-02-06T23:34:24.777Z,12.50
2023-02-06T23:36:53.421Z,12.40
2023-02-06T23:39:22.963Z,11.50
2023-02-06T23:41:51.317Z,12.00
2023-02-06T23:44:19.666Z,12.00
2023-02-06T23:46:48.110Z,10.40
2023-02-06T23:49:16.773Z,10.40
2023-02-06T23:51:45.339Z,10.30
2023-02-06T23:54:16.515Z,9.90
2023-02-06T23:56:44.940Z,9.80
2023-02-06T23:59:13.308Z,8.60
